Du har inga inställningar för hoppväder.nu

Hoppväder.nu

Senast uppdaterat 03:59

UTC-tid

2021-10-25 kl. 01:59


Sol och måne

Solen går upp 8:17 och går ner 18:28 (beräknade cirkatider)
Nästa fullmåne blir om 25 dagar (2021-11-19)

METAR

ESGG (Landvetter)
(9 minuter sedan)
ESGG 250150Z 18010KT 9999 FEW012 SCT016 BKN028 07/05 Q1016=



ESGP (Säve)
ESGP NIL=



ESIB (Såtenäs)
(9 minuter sedan)
ESIB 250150Z AUTO 18008KT 9999 NCD 06/05 Q1015=



ESGT (Trollhättan/Vänersborg)
(9 minuter sedan)
ESGT 250150Z AUTO 18006KT 9999 NCD 03/03 Q1016=






TAF

ESGG (Landvetter)
(1589 minuter sedan)
ESGG 242330Z 2500/2524 17008KT 9999 FEW015 BKN025 PROB40 2500/2514 4000 BR BKN008 BECMG 2514/2516 4000 -RADZ BR OVC005 TEMPO 2518/2524 0700 FG VV002=



ESGP (Säve)
ESGP



ESIB (Såtenäs)
(1594 minuter sedan)
ESIB 242325Z 2500/2509 18008KT 9999 SCT030 TEMPO 2503/2508 BKN010 RMK MIL=



ESGT (Trollhättan/Vänersborg)
ESGT





Kodnycklar till TAF och METAR






LHP

(Vårgårda är område se21k i Delområde 1)

Prognos är inte uppdaterad






Preliminär prognos